sensor_id;sensor_type;location;lat;lon;timestamp;P1;durP1;ratioP1;P2;durP2;ratioP2
52542;SDS011;38449;52.696;6.186;2023-05-07T00:00:47;16.13;;;14.27;;
52542;SDS011;38449;52.696;6.186;2023-05-07T00:03:13;15.38;;;13.75;;
52542;SDS011;38449;52.696;6.186;2023-05-07T00:05:40;16.75;;;13.75;;
52542;SDS011;38449;52.696;6.186;2023-05-07T00:08:07;15.40;;;12.52;;
52542;SDS011;38449;52.696;6.186;2023-05-07T00:10:33;15.93;;;14.35;;
52542;SDS011;38449;52.696;6.186;2023-05-07T00:12:59;16.23;;;13.48;;
52542;SDS011;38449;52.696;6.186;2023-05-07T00:15:26;15.55;;;13.98;;
52542;SDS011;38449;52.696;6.186;2023-05-07T00:17:53;14.25;;;12.85;;
52542;SDS011;38449;52.696;6.186;2023-05-07T00:20:19;14.10;;;12.25;;
52542;SDS011;38449;52.696;6.186;2023-05-07T00:22:45;14.32;;;12.45;;
52542;SDS011;38449;52.696;6.186;2023-05-07T00:25:11;15.02;;;13.13;;
52542;SDS011;38449;52.696;6.186;2023-05-07T00:27:38;14.98;;;13.40;;
52542;SDS011;38449;52.696;6.186;2023-05-07T00:30:04;17.20;;;15.38;;
52542;SDS011;38449;52.696;6.186;2023-05-07T00:32:31;15.27;;;13.43;;
52542;SDS011;38449;52.696;6.186;2023-05-07T00:34:58;16.77;;;15.18;;
52542;SDS011;38449;52.696;6.186;2023-05-07T00:37:24;17.42;;;15.63;;
52542;SDS011;38449;52.696;6.186;2023-05-07T00:39:50;17.02;;;15.23;;
52542;SDS011;38449;52.696;6.186;2023-05-07T00:42:17;18.02;;;15.45;;
52542;SDS011;38449;52.696;6.186;2023-05-07T00:44:43;19.25;;;16.10;;
52542;SDS011;38449;52.696;6.186;2023-05-07T00:47:10;20.80;;;15.75;;
52542;SDS011;38449;52.696;6.186;2023-05-07T00:49:43;17.48;;;15.68;;
52542;SDS011;38449;52.696;6.186;2023-05-07T00:52:11;18.17;;;16.17;;
52542;SDS011;38449;52.696;6.186;2023-05-07T00:57:11;19.33;;;16.98;;
52542;SDS011;38449;52.696;6.186;2023-05-07T00:59:37;22.85;;;18.88;;
52542;SDS011;38449;52.696;6.186;2023-05-07T01:02:05;21.08;;;18.83;;
52542;SDS011;38449;52.696;6.186;2023-05-07T01:04:31;21.30;;;19.05;;
52542;SDS011;38449;52.696;6.186;2023-05-07T01:06:58;22.10;;;19.60;;
52542;SDS011;38449;52.696;6.186;2023-05-07T01:09:26;23.23;;;19.48;;
52542;SDS011;38449;52.696;6.186;2023-05-07T01:11:53;22.00;;;18.48;;
52542;SDS011;38449;52.696;6.186;2023-05-07T01:14:23;21.08;;;18.75;;
52542;SDS011;38449;52.696;6.186;2023-05-07T01:16:49;21.23;;;18.60;;
52542;SDS011;38449;52.696;6.186;2023-05-07T01:19:17;23.60;;;19.13;;
52542;SDS011;38449;52.696;6.186;2023-05-07T01:21:45;21.63;;;19.33;;
52542;SDS011;38449;52.696;6.186;2023-05-07T01:24:14;22.33;;;19.20;;
52542;SDS011;38449;52.696;6.186;2023-05-07T01:26:41;23.13;;;20.80;;
52542;SDS011;38449;52.696;6.186;2023-05-07T01:29:09;22.00;;;18.90;;
52542;SDS011;38449;52.696;6.186;2023-05-07T01:31:35;22.10;;;18.38;;
52542;SDS011;38449;52.696;6.186;2023-05-07T01:34:02;20.63;;;17.83;;
52542;SDS011;38449;52.696;6.186;2023-05-07T01:36:30;21.80;;;18.98;;
52542;SDS011;38449;52.696;6.186;2023-05-07T01:38:58;21.25;;;18.23;;
52542;SDS011;38449;52.696;6.186;2023-05-07T01:41:25;24.42;;;18.92;;
52542;SDS011;38449;52.696;6.186;2023-05-07T01:43:52;21.38;;;17.58;;
52542;SDS011;38449;52.696;6.186;2023-05-07T01:46:19;23.10;;;18.75;;
52542;SDS011;38449;52.696;6.186;2023-05-07T01:48:46;20.92;;;17.10;;
52542;SDS011;38449;52.696;6.186;2023-05-07T01:51:12;21.00;;;18.73;;
52542;SDS011;38449;52.696;6.186;2023-05-07T01:53:39;21.50;;;17.73;;
52542;SDS011;38449;52.696;6.186;2023-05-07T01:56:07;21.48;;;17.08;;
52542;SDS011;38449;52.696;6.186;2023-05-07T01:58:33;20.13;;;17.08;;
52542;SDS011;38449;52.696;6.186;2023-05-07T02:00:59;23.75;;;18.20;;
52542;SDS011;38449;52.696;6.186;2023-05-07T02:03:25;20.55;;;17.00;;
52542;SDS011;38449;52.696;6.186;2023-05-07T02:05:52;20.50;;;16.15;;
52542;SDS011;38449;52.696;6.186;2023-05-07T02:08:18;21.52;;;16.98;;
52542;SDS011;38449;52.696;6.186;2023-05-07T02:10:44;19.15;;;15.82;;
52542;SDS011;38449;52.696;6.186;2023-05-07T02:13:10;20.48;;;15.20;;
52542;SDS011;38449;52.696;6.186;2023-05-07T02:15:37;19.83;;;14.82;;
52542;SDS011;38449;52.696;6.186;2023-05-07T02:18:04;17.10;;;14.63;;
52542;SDS011;38449;52.696;6.186;2023-05-07T02:20:33;18.42;;;14.68;;
52542;SDS011;38449;52.696;6.186;2023-05-07T02:23:00;18.15;;;13.70;;
52542;SDS011;38449;52.696;6.186;2023-05-07T02:25:26;19.48;;;14.88;;
52542;SDS011;38449;52.696;6.186;2023-05-07T02:27:52;20.05;;;14.90;;
52542;SDS011;38449;52.696;6.186;2023-05-07T02:30:18;21.50;;;16.27;;
52542;SDS011;38449;52.696;6.186;2023-05-07T02:32:46;18.95;;;15.23;;
52542;SDS011;38449;52.696;6.186;2023-05-07T02:35:13;19.25;;;15.02;;
52542;SDS011;38449;52.696;6.186;2023-05-07T02:37:39;20.58;;;16.45;;
52542;SDS011;38449;52.696;6.186;2023-05-07T02:40:05;17.67;;;14.40;;
52542;SDS011;38449;52.696;6.186;2023-05-07T02:42:32;19.02;;;15.20;;
52542;SDS011;38449;52.696;6.186;2023-05-07T02:44:58;18.23;;;14.80;;
52542;SDS011;38449;52.696;6.186;2023-05-07T02:47:25;19.58;;;14.63;;
52542;SDS011;38449;52.696;6.186;2023-05-07T02:49:54;18.88;;;15.65;;
52542;SDS011;38449;52.696;6.186;2023-05-07T02:52:21;18.13;;;14.85;;
52542;SDS011;38449;52.696;6.186;2023-05-07T02:54:47;20.02;;;17.55;;
52542;SDS011;38449;52.696;6.186;2023-05-07T02:57:14;19.15;;;16.23;;
52542;SDS011;38449;52.696;6.186;2023-05-07T02:59:41;19.75;;;16.10;;
52542;SDS011;38449;52.696;6.186;2023-05-07T03:02:07;21.77;;;16.48;;
52542;SDS011;38449;52.696;6.186;2023-05-07T03:04:33;19.67;;;15.63;;
52542;SDS011;38449;52.696;6.186;2023-05-07T03:07:00;20.92;;;17.27;;
52542;SDS011;38449;52.696;6.186;2023-05-07T03:09:26;19.27;;;16.27;;
52542;SDS011;38449;52.696;6.186;2023-05-07T03:11:52;22.67;;;16.52;;
52542;SDS011;38449;52.696;6.186;2023-05-07T03:14:18;21.20;;;17.15;;
52542;SDS011;38449;52.696;6.186;2023-05-07T03:16:45;20.88;;;16.58;;
52542;SDS011;38449;52.696;6.186;2023-05-07T03:19:11;21.02;;;16.83;;
52542;SDS011;38449;52.696;6.186;2023-05-07T03:21:37;20.38;;;16.48;;
52542;SDS011;38449;52.696;6.186;2023-05-07T03:24:03;22.10;;;16.98;;
52542;SDS011;38449;52.696;6.186;2023-05-07T03:26:30;20.50;;;17.33;;
52542;SDS011;38449;52.696;6.186;2023-05-07T03:28:56;24.23;;;17.90;;
52542;SDS011;38449;52.696;6.186;2023-05-07T03:31:22;22.05;;;18.08;;
52542;SDS011;38449;52.696;6.186;2023-05-07T03:33:53;22.85;;;16.50;;
52542;SDS011;38449;52.696;6.186;2023-05-07T03:36:20;20.83;;;17.25;;
52542;SDS011;38449;52.696;6.186;2023-05-07T03:38:47;21.05;;;16.83;;
52542;SDS011;38449;52.696;6.186;2023-05-07T03:41:14;21.65;;;16.90;;
52542;SDS011;38449;52.696;6.186;2023-05-07T03:43:40;22.73;;;16.65;;
52542;SDS011;38449;52.696;6.186;2023-05-07T03:46:06;21.38;;;17.45;;
52542;SDS011;38449;52.696;6.186;2023-05-07T03:48:33;21.35;;;17.00;;
52542;SDS011;38449;52.696;6.186;2023-05-07T03:50:59;23.27;;;17.30;;
52542;SDS011;38449;52.696;6.186;2023-05-07T03:53:25;25.05;;;18.17;;
52542;SDS011;38449;52.696;6.186;2023-05-07T03:55:51;25.33;;;18.10;;
52542;SDS011;38449;52.696;6.186;2023-05-07T03:58:18;24.42;;;20.48;;
52542;SDS011;38449;52.696;6.186;2023-05-07T04:00:44;25.45;;;18.50;;
52542;SDS011;38449;52.696;6.186;2023-05-07T04:03:11;23.13;;;19.15;;
52542;SDS011;38449;52.696;6.186;2023-05-07T04:05:37;25.00;;;18.50;;
52542;SDS011;38449;52.696;6.186;2023-05-07T04:08:03;23.58;;;19.20;;
52542;SDS011;38449;52.696;6.186;2023-05-07T04:10:31;27.52;;;19.58;;
52542;SDS011;38449;52.696;6.186;2023-05-07T04:12:57;26.65;;;20.05;;
52542;SDS011;38449;52.696;6.186;2023-05-07T04:15:23;22.80;;;17.75;;
52542;SDS011;38449;52.696;6.186;2023-05-07T04:17:50;23.67;;;17.55;;
52542;SDS011;38449;52.696;6.186;2023-05-07T04:20:16;24.08;;;19.73;;
52542;SDS011;38449;52.696;6.186;2023-05-07T04:22:43;24.98;;;18.95;;
52542;SDS011;38449;52.696;6.186;2023-05-07T04:25:09;27.88;;;21.10;;
52542;SDS011;38449;52.696;6.186;2023-05-07T04:27:36;25.73;;;18.80;;
52542;SDS011;38449;52.696;6.186;2023-05-07T04:30:03;26.55;;;21.40;;
52542;SDS011;38449;52.696;6.186;2023-05-07T04:32:30;27.35;;;19.52;;
52542;SDS011;38449;52.696;6.186;2023-05-07T04:34:56;26.05;;;21.23;;
52542;SDS011;38449;52.696;6.186;2023-05-07T04:37:22;27.23;;;19.80;;
52542;SDS011;38449;52.696;6.186;2023-05-07T04:39:49;29.35;;;22.05;;
52542;SDS011;38449;52.696;6.186;2023-05-07T04:42:15;28.52;;;20.85;;
52542;SDS011;38449;52.696;6.186;2023-05-07T04:44:44;29.17;;;20.98;;
52542;SDS011;38449;52.696;6.186;2023-05-07T04:47:11;27.83;;;20.05;;
52542;SDS011;38449;52.696;6.186;2023-05-07T04:49:37;29.13;;;20.92;;
52542;SDS011;38449;52.696;6.186;2023-05-07T04:52:04;28.02;;;21.08;;
52542;SDS011;38449;52.696;6.186;2023-05-07T04:54:30;28.50;;;20.17;;
52542;SDS011;38449;52.696;6.186;2023-05-07T04:56:57;30.63;;;24.08;;
52542;SDS011;38449;52.696;6.186;2023-05-07T04:59:23;29.08;;;22.55;;
52542;SDS011;38449;52.696;6.186;2023-05-07T05:01:50;29.38;;;22.60;;
52542;SDS011;38449;52.696;6.186;2023-05-07T05:04:16;30.38;;;22.45;;
52542;SDS011;38449;52.696;6.186;2023-05-07T05:06:42;27.90;;;21.25;;
52542;SDS011;38449;52.696;6.186;2023-05-07T05:09:08;30.92;;;21.48;;
52542;SDS011;38449;52.696;6.186;2023-05-07T05:11:35;29.80;;;22.25;;
52542;SDS011;38449;52.696;6.186;2023-05-07T05:14:01;33.10;;;23.83;;
52542;SDS011;38449;52.696;6.186;2023-05-07T05:16:28;31.25;;;23.00;;
52542;SDS011;38449;52.696;6.186;2023-05-07T05:18:54;32.15;;;22.38;;
52542;SDS011;38449;52.696;6.186;2023-05-07T05:21:20;33.05;;;22.75;;
52542;SDS011;38449;52.696;6.186;2023-05-07T05:23:46;34.53;;;24.75;;
52542;SDS011;38449;52.696;6.186;2023-05-07T05:26:13;30.55;;;22.98;;
52542;SDS011;38449;52.696;6.186;2023-05-07T05:28:39;32.85;;;24.30;;
52542;SDS011;38449;52.696;6.186;2023-05-07T05:31:05;33.05;;;25.67;;
52542;SDS011;38449;52.696;6.186;2023-05-07T05:33:32;32.47;;;25.67;;
52542;SDS011;38449;52.696;6.186;2023-05-07T05:35:58;33.55;;;23.45;;
52542;SDS011;38449;52.696;6.186;2023-05-07T05:38:24;29.52;;;22.45;;
52542;SDS011;38449;52.696;6.186;2023-05-07T05:40:51;33.95;;;24.70;;
52542;SDS011;38449;52.696;6.186;2023-05-07T05:43:17;32.50;;;24.35;;
52542;SDS011;38449;52.696;6.186;2023-05-07T05:45:44;32.35;;;23.23;;
52542;SDS011;38449;52.696;6.186;2023-05-07T05:48:10;31.88;;;22.80;;
52542;SDS011;38449;52.696;6.186;2023-05-07T05:50:36;31.52;;;23.88;;
52542;SDS011;38449;52.696;6.186;2023-05-07T05:53:03;35.50;;;22.80;;
52542;SDS011;38449;52.696;6.186;2023-05-07T05:55:29;33.95;;;23.90;;
52542;SDS011;38449;52.696;6.186;2023-05-07T05:57:59;34.35;;;24.52;;
52542;SDS011;38449;52.696;6.186;2023-05-07T06:00:26;33.38;;;24.17;;
52542;SDS011;38449;52.696;6.186;2023-05-07T06:02:53;32.35;;;25.45;;
52542;SDS011;38449;52.696;6.186;2023-05-07T06:05:19;32.78;;;22.73;;
52542;SDS011;38449;52.696;6.186;2023-05-07T06:07:45;31.80;;;24.83;;
52542;SDS011;38449;52.696;6.186;2023-05-07T06:10:11;31.13;;;22.33;;
52542;SDS011;38449;52.696;6.186;2023-05-07T06:12:38;37.10;;;25.15;;
52542;SDS011;38449;52.696;6.186;2023-05-07T06:15:05;32.60;;;24.77;;
52542;SDS011;38449;52.696;6.186;2023-05-07T06:17:32;33.58;;;23.70;;
52542;SDS011;38449;52.696;6.186;2023-05-07T06:19:58;30.60;;;22.05;;
52542;SDS011;38449;52.696;6.186;2023-05-07T06:22:24;33.13;;;23.15;;
52542;SDS011;38449;52.696;6.186;2023-05-07T06:24:51;34.30;;;22.90;;
52542;SDS011;38449;52.696;6.186;2023-05-07T06:27:17;32.80;;;23.65;;
52542;SDS011;38449;52.696;6.186;2023-05-07T06:29:43;31.85;;;23.80;;
52542;SDS011;38449;52.696;6.186;2023-05-07T06:32:10;29.80;;;22.25;;
52542;SDS011;38449;52.696;6.186;2023-05-07T06:34:38;28.48;;;21.42;;
52542;SDS011;38449;52.696;6.186;2023-05-07T06:37:05;31.08;;;22.38;;
52542;SDS011;38449;52.696;6.186;2023-05-07T06:39:32;28.52;;;22.90;;
52542;SDS011;38449;52.696;6.186;2023-05-07T06:41:59;29.70;;;21.90;;
52542;SDS011;38449;52.696;6.186;2023-05-07T06:44:27;29.30;;;22.13;;
52542;SDS011;38449;52.696;6.186;2023-05-07T06:46:53;28.20;;;21.15;;
52542;SDS011;38449;52.696;6.186;2023-05-07T06:49:19;28.38;;;21.70;;
52542;SDS011;38449;52.696;6.186;2023-05-07T06:51:46;28.20;;;20.77;;
52542;SDS011;38449;52.696;6.186;2023-05-07T06:54:12;27.65;;;22.48;;
52542;SDS011;38449;52.696;6.186;2023-05-07T06:56:38;28.23;;;22.40;;
52542;SDS011;38449;52.696;6.186;2023-05-07T06:59:05;26.63;;;21.17;;
52542;SDS011;38449;52.696;6.186;2023-05-07T07:01:32;29.20;;;22.85;;
52542;SDS011;38449;52.696;6.186;2023-05-07T07:03:58;27.75;;;22.00;;
52542;SDS011;38449;52.696;6.186;2023-05-07T07:06:24;26.58;;;21.05;;
52542;SDS011;38449;52.696;6.186;2023-05-07T07:08:51;27.15;;;21.02;;
52542;SDS011;38449;52.696;6.186;2023-05-07T07:11:17;26.77;;;21.05;;
52542;SDS011;38449;52.696;6.186;2023-05-07T07:13:43;26.52;;;21.33;;
52542;SDS011;38449;52.696;6.186;2023-05-07T07:16:09;26.20;;;20.77;;
52542;SDS011;38449;52.696;6.186;2023-05-07T07:18:36;24.80;;;21.00;;
52542;SDS011;38449;52.696;6.186;2023-05-07T07:21:02;26.25;;;21.50;;
52542;SDS011;38449;52.696;6.186;2023-05-07T07:23:29;28.08;;;21.08;;
52542;SDS011;38449;52.696;6.186;2023-05-07T07:25:55;26.48;;;20.65;;
52542;SDS011;38449;52.696;6.186;2023-05-07T07:28:22;26.77;;;20.92;;
52542;SDS011;38449;52.696;6.186;2023-05-07T07:30:48;26.60;;;20.52;;
52542;SDS011;38449;52.696;6.186;2023-05-07T07:33:14;29.73;;;22.00;;
52542;SDS011;38449;52.696;6.186;2023-05-07T07:35:40;27.52;;;21.08;;
52542;SDS011;38449;52.696;6.186;2023-05-07T07:38:07;26.67;;;21.75;;
52542;SDS011;38449;52.696;6.186;2023-05-07T07:40:36;26.00;;;21.73;;
52542;SDS011;38449;52.696;6.186;2023-05-07T07:43:02;25.08;;;20.00;;
52542;SDS011;38449;52.696;6.186;2023-05-07T07:45:29;24.92;;;20.27;;
52542;SDS011;38449;52.696;6.186;2023-05-07T07:47:55;27.85;;;22.20;;
52542;SDS011;38449;52.696;6.186;2023-05-07T07:50:21;25.33;;;21.65;;
52542;SDS011;38449;52.696;6.186;2023-05-07T07:52:48;26.00;;;20.95;;
52542;SDS011;38449;52.696;6.186;2023-05-07T07:55:14;26.17;;;20.40;;
52542;SDS011;38449;52.696;6.186;2023-05-07T07:57:46;26.92;;;19.58;;
52542;SDS011;38449;52.696;6.186;2023-05-07T08:00:12;27.48;;;20.85;;
52542;SDS011;38449;52.696;6.186;2023-05-07T08:02:39;27.75;;;22.38;;
52542;SDS011;38449;52.696;6.186;2023-05-07T08:05:06;24.85;;;20.40;;
52542;SDS011;38449;52.696;6.186;2023-05-07T08:07:32;26.67;;;21.60;;
52542;SDS011;38449;52.696;6.186;2023-05-07T08:09:58;25.67;;;20.73;;
52542;SDS011;38449;52.696;6.186;2023-05-07T08:12:25;26.83;;;21.67;;
52542;SDS011;38449;52.696;6.186;2023-05-07T08:14:51;25.75;;;20.67;;
52542;SDS011;38449;52.696;6.186;2023-05-07T08:17:17;27.55;;;21.02;;
52542;SDS011;38449;52.696;6.186;2023-05-07T08:19:44;25.77;;;20.77;;
52542;SDS011;38449;52.696;6.186;2023-05-07T08:22:10;25.42;;;20.13;;
52542;SDS011;38449;52.696;6.186;2023-05-07T08:24:36;24.40;;;20.23;;
52542;SDS011;38449;52.696;6.186;2023-05-07T08:27:02;27.15;;;21.40;;
52542;SDS011;38449;52.696;6.186;2023-05-07T08:29:29;25.02;;;20.52;;
52542;SDS011;38449;52.696;6.186;2023-05-07T08:31:55;27.02;;;22.00;;
52542;SDS011;38449;52.696;6.186;2023-05-07T08:34:21;27.88;;;20.67;;
52542;SDS011;38449;52.696;6.186;2023-05-07T08:36:48;28.65;;;21.88;;
52542;SDS011;38449;52.696;6.186;2023-05-07T08:39:17;27.25;;;20.98;;
52542;SDS011;38449;52.696;6.186;2023-05-07T08:41:44;26.55;;;22.60;;
52542;SDS011;38449;52.696;6.186;2023-05-07T08:44:13;26.98;;;20.77;;
52542;SDS011;38449;52.696;6.186;2023-05-07T08:46:41;25.80;;;20.40;;
52542;SDS011;38449;52.696;6.186;2023-05-07T08:49:08;26.73;;;21.00;;
52542;SDS011;38449;52.696;6.186;2023-05-07T08:51:34;25.60;;;20.30;;
52542;SDS011;38449;52.696;6.186;2023-05-07T08:54:01;26.23;;;21.10;;
52542;SDS011;38449;52.696;6.186;2023-05-07T08:56:27;28.30;;;22.65;;
52542;SDS011;38449;52.696;6.186;2023-05-07T08:58:54;26.60;;;22.00;;
52542;SDS011;38449;52.696;6.186;2023-05-07T09:01:24;28.92;;;23.48;;
52542;SDS011;38449;52.696;6.186;2023-05-07T09:03:51;25.02;;;20.33;;
52542;SDS011;38449;52.696;6.186;2023-05-07T09:06:18;24.00;;;21.00;;
52542;SDS011;38449;52.696;6.186;2023-05-07T09:08:49;28.55;;;21.77;;
52542;SDS011;38449;52.696;6.186;2023-05-07T09:11:20;26.38;;;21.60;;
52542;SDS011;38449;52.696;6.186;2023-05-07T09:13:48;27.58;;;22.05;;
52542;SDS011;38449;52.696;6.186;2023-05-07T09:16:20;26.10;;;20.65;;
52542;SDS011;38449;52.696;6.186;2023-05-07T09:18:48;26.55;;;20.80;;
52542;SDS011;38449;52.696;6.186;2023-05-07T09:21:17;27.88;;;21.42;;
52542;SDS011;38449;52.696;6.186;2023-05-07T09:23:44;26.65;;;21.52;;
52542;SDS011;38449;52.696;6.186;2023-05-07T09:26:11;25.95;;;20.65;;
52542;SDS011;38449;52.696;6.186;2023-05-07T09:28:38;25.58;;;20.65;;
52542;SDS011;38449;52.696;6.186;2023-05-07T09:31:06;28.00;;;21.45;;
52542;SDS011;38449;52.696;6.186;2023-05-07T09:33:34;25.10;;;20.60;;
52542;SDS011;38449;52.696;6.186;2023-05-07T09:36:04;24.13;;;20.40;;
52542;SDS011;38449;52.696;6.186;2023-05-07T09:38:32;26.50;;;20.17;;
52542;SDS011;38449;52.696;6.186;2023-05-07T09:41:06;26.00;;;21.77;;
52542;SDS011;38449;52.696;6.186;2023-05-07T09:43:34;27.20;;;23.17;;
52542;SDS011;38449;52.696;6.186;2023-05-07T09:46:09;25.98;;;22.45;;
52542;SDS011;38449;52.696;6.186;2023-05-07T09:48:38;25.88;;;21.30;;
52542;SDS011;38449;52.696;6.186;2023-05-07T09:51:08;24.52;;;20.35;;
52542;SDS011;38449;52.696;6.186;2023-05-07T09:53:41;24.58;;;20.70;;
52542;SDS011;38449;52.696;6.186;2023-05-07T09:56:08;28.95;;;21.50;;
52542;SDS011;38449;52.696;6.186;2023-05-07T09:58:36;27.33;;;22.25;;
52542;SDS011;38449;52.696;6.186;2023-05-07T10:01:06;26.45;;;21.02;;
52542;SDS011;38449;52.696;6.186;2023-05-07T10:03:33;23.80;;;20.23;;
52542;SDS011;38449;52.696;6.186;2023-05-07T10:06:00;27.15;;;20.98;;
52542;SDS011;38449;52.696;6.186;2023-05-07T10:08:29;27.42;;;20.73;;
52542;SDS011;38449;52.696;6.186;2023-05-07T10:10:57;25.75;;;22.50;;
52542;SDS011;38449;52.696;6.186;2023-05-07T10:13:25;25.67;;;23.05;;
52542;SDS011;38449;52.696;6.186;2023-05-07T10:15:51;25.75;;;21.27;;
52542;SDS011;38449;52.696;6.186;2023-05-07T10:18:18;24.75;;;19.70;;
52542;SDS011;38449;52.696;6.186;2023-05-07T10:20:49;28.40;;;22.58;;
52542;SDS011;38449;52.696;6.186;2023-05-07T10:23:19;25.70;;;21.17;;
52542;SDS011;38449;52.696;6.186;2023-05-07T10:25:49;26.58;;;21.13;;
52542;SDS011;38449;52.696;6.186;2023-05-07T10:28:15;23.98;;;19.52;;
52542;SDS011;38449;52.696;6.186;2023-05-07T10:30:50;23.52;;;19.42;;
52542;SDS011;38449;52.696;6.186;2023-05-07T10:33:46;25.35;;;20.42;;
52542;SDS011;38449;52.696;6.186;2023-05-07T10:36:14;24.38;;;19.85;;
52542;SDS011;38449;52.696;6.186;2023-05-07T10:38:40;26.50;;;19.58;;
52542;SDS011;38449;52.696;6.186;2023-05-07T10:41:07;26.40;;;21.00;;
52542;SDS011;38449;52.696;6.186;2023-05-07T10:43:38;24.90;;;20.55;;
52542;SDS011;38449;52.696;6.186;2023-05-07T10:46:10;27.95;;;22.98;;
52542;SDS011;38449;52.696;6.186;2023-05-07T10:51:32;23.92;;;19.92;;
52542;SDS011;38449;52.696;6.186;2023-05-07T10:56:37;22.00;;;17.88;;
52542;SDS011;38449;52.696;6.186;2023-05-07T11:02:04;23.83;;;19.95;;
52542;SDS011;38449;52.696;6.186;2023-05-07T11:04:32;22.00;;;19.30;;
52542;SDS011;38449;52.696;6.186;2023-05-07T11:15:07;21.05;;;16.20;;
52542;SDS011;38449;52.696;6.186;2023-05-07T11:17:55;21.75;;;16.65;;
52542;SDS011;38449;52.696;6.186;2023-05-07T11:26:02;22.40;;;19.08;;
52542;SDS011;38449;52.696;6.186;2023-05-07T11:28:37;20.92;;;18.13;;
52542;SDS011;38449;52.696;6.186;2023-05-07T11:33:30;21.35;;;18.80;;
52542;SDS011;38449;52.696;6.186;2023-05-07T11:35:57;20.92;;;16.70;;
52542;SDS011;38449;52.696;6.186;2023-05-07T11:38:25;25.50;;;19.30;;
52542;SDS011;38449;52.696;6.186;2023-05-07T11:40:52;21.38;;;18.45;;
52542;SDS011;38449;52.696;6.186;2023-05-07T11:43:19;22.30;;;18.02;;
52542;SDS011;38449;52.696;6.186;2023-05-07T11:45:46;22.30;;;17.88;;
52542;SDS011;38449;52.696;6.186;2023-05-07T11:48:13;21.08;;;18.10;;
52542;SDS011;38449;52.696;6.186;2023-05-07T11:53:19;22.92;;;19.27;;
52542;SDS011;38449;52.696;6.186;2023-05-07T11:55:46;23.15;;;18.58;;
52542;SDS011;38449;52.696;6.186;2023-05-07T11:58:13;21.92;;;17.85;;
52542;SDS011;38449;52.696;6.186;2023-05-07T12:00:50;22.95;;;19.15;;
52542;SDS011;38449;52.696;6.186;2023-05-07T12:03:17;21.95;;;17.63;;
52542;SDS011;38449;52.696;6.186;2023-05-07T12:05:44;20.58;;;18.13;;
52542;SDS011;38449;52.696;6.186;2023-05-07T12:08:14;23.75;;;20.13;;
52542;SDS011;38449;52.696;6.186;2023-05-07T12:10:45;21.95;;;18.50;;
52542;SDS011;38449;52.696;6.186;2023-05-07T12:13:17;21.85;;;18.80;;
52542;SDS011;38449;52.696;6.186;2023-05-07T12:15:44;23.23;;;18.38;;
52542;SDS011;38449;52.696;6.186;2023-05-07T12:18:10;21.50;;;18.35;;
52542;SDS011;38449;52.696;6.186;2023-05-07T12:20:37;22.33;;;18.08;;
52542;SDS011;38449;52.696;6.186;2023-05-07T12:23:04;20.60;;;18.38;;
52542;SDS011;38449;52.696;6.186;2023-05-07T12:25:31;21.48;;;18.42;;
52542;SDS011;38449;52.696;6.186;2023-05-07T12:28:00;21.23;;;17.33;;
52542;SDS011;38449;52.696;6.186;2023-05-07T12:30:39;19.73;;;17.58;;
52542;SDS011;38449;52.696;6.186;2023-05-07T12:33:06;22.35;;;18.65;;
52542;SDS011;38449;52.696;6.186;2023-05-07T12:35:39;22.35;;;19.58;;
52542;SDS011;38449;52.696;6.186;2023-05-07T12:38:11;22.73;;;18.02;;
52542;SDS011;38449;52.696;6.186;2023-05-07T12:40:42;21.42;;;19.25;;
52542;SDS011;38449;52.696;6.186;2023-05-07T12:43:29;22.17;;;19.17;;
52542;SDS011;38449;52.696;6.186;2023-05-07T12:45:57;22.67;;;17.65;;
52542;SDS011;38449;52.696;6.186;2023-05-07T12:48:25;20.77;;;17.98;;
52542;SDS011;38449;52.696;6.186;2023-05-07T12:50:53;19.73;;;16.75;;
52542;SDS011;38449;52.696;6.186;2023-05-07T12:53:21;20.90;;;17.45;;
52542;SDS011;38449;52.696;6.186;2023-05-07T12:55:52;19.13;;;16.75;;
52542;SDS011;38449;52.696;6.186;2023-05-07T12:58:27;21.13;;;18.33;;
52542;SDS011;38449;52.696;6.186;2023-05-07T13:00:55;21.08;;;18.88;;
52542;SDS011;38449;52.696;6.186;2023-05-07T13:05:57;21.02;;;17.67;;
52542;SDS011;38449;52.696;6.186;2023-05-07T13:08:25;21.50;;;18.15;;
52542;SDS011;38449;52.696;6.186;2023-05-07T13:10:59;21.45;;;19.13;;
52542;SDS011;38449;52.696;6.186;2023-05-07T13:13:33;19.40;;;17.15;;
52542;SDS011;38449;52.696;6.186;2023-05-07T13:16:01;18.77;;;15.98;;
52542;SDS011;38449;52.696;6.186;2023-05-07T13:18:31;20.15;;;17.10;;
52542;SDS011;38449;52.696;6.186;2023-05-07T13:20:58;22.40;;;18.17;;
52542;SDS011;38449;52.696;6.186;2023-05-07T13:23:26;20.42;;;17.48;;
52542;SDS011;38449;52.696;6.186;2023-05-07T13:25:53;21.15;;;17.40;;
52542;SDS011;38449;52.696;6.186;2023-05-07T13:28:22;20.23;;;17.15;;
52542;SDS011;38449;52.696;6.186;2023-05-07T13:30:50;19.50;;;17.02;;
52542;SDS011;38449;52.696;6.186;2023-05-07T13:33:17;20.35;;;17.45;;
52542;SDS011;38449;52.696;6.186;2023-05-07T13:35:44;18.88;;;16.83;;
52542;SDS011;38449;52.696;6.186;2023-05-07T13:38:10;20.05;;;17.92;;
52542;SDS011;38449;52.696;6.186;2023-05-07T13:40:37;21.42;;;19.00;;
52542;SDS011;38449;52.696;6.186;2023-05-07T13:43:05;21.65;;;18.42;;
52542;SDS011;38449;52.696;6.186;2023-05-07T13:45:31;21.65;;;19.05;;
52542;SDS011;38449;52.696;6.186;2023-05-07T13:47:58;20.58;;;18.10;;
52542;SDS011;38449;52.696;6.186;2023-05-07T13:50:24;20.45;;;18.08;;
52542;SDS011;38449;52.696;6.186;2023-05-07T13:52:52;20.30;;;17.75;;
52542;SDS011;38449;52.696;6.186;2023-05-07T13:55:19;20.00;;;17.80;;
52542;SDS011;38449;52.696;6.186;2023-05-07T13:57:46;18.85;;;16.70;;
52542;SDS011;38449;52.696;6.186;2023-05-07T14:00:13;21.25;;;18.83;;
52542;SDS011;38449;52.696;6.186;2023-05-07T14:02:40;22.52;;;16.88;;
52542;SDS011;38449;52.696;6.186;2023-05-07T14:05:06;18.70;;;16.10;;
52542;SDS011;38449;52.696;6.186;2023-05-07T14:07:34;19.70;;;17.20;;
52542;SDS011;38449;52.696;6.186;2023-05-07T14:10:01;18.35;;;15.20;;
52542;SDS011;38449;52.696;6.186;2023-05-07T14:12:28;18.63;;;15.85;;
52542;SDS011;38449;52.696;6.186;2023-05-07T14:14:54;18.23;;;15.55;;
52542;SDS011;38449;52.696;6.186;2023-05-07T14:17:21;17.35;;;14.50;;
52542;SDS011;38449;52.696;6.186;2023-05-07T14:19:48;18.05;;;15.57;;
52542;SDS011;38449;52.696;6.186;2023-05-07T14:22:15;18.33;;;15.70;;
52542;SDS011;38449;52.696;6.186;2023-05-07T14:24:41;17.70;;;15.90;;
52542;SDS011;38449;52.696;6.186;2023-05-07T14:27:07;18.52;;;15.98;;
52542;SDS011;38449;52.696;6.186;2023-05-07T14:29:33;20.83;;;16.20;;
52542;SDS011;38449;52.696;6.186;2023-05-07T14:32:01;19.05;;;15.68;;
52542;SDS011;38449;52.696;6.186;2023-05-07T14:34:30;19.27;;;16.92;;
52542;SDS011;38449;52.696;6.186;2023-05-07T14:36:57;18.67;;;16.77;;
52542;SDS011;38449;52.696;6.186;2023-05-07T14:39:25;19.98;;;16.75;;
52542;SDS011;38449;52.696;6.186;2023-05-07T14:41:51;19.50;;;15.93;;
52542;SDS011;38449;52.696;6.186;2023-05-07T14:44:20;18.13;;;15.77;;
52542;SDS011;38449;52.696;6.186;2023-05-07T14:46:46;19.83;;;17.42;;
52542;SDS011;38449;52.696;6.186;2023-05-07T14:49:15;20.17;;;16.67;;
52542;SDS011;38449;52.696;6.186;2023-05-07T14:51:45;19.75;;;16.92;;
52542;SDS011;38449;52.696;6.186;2023-05-07T14:54:12;19.30;;;16.48;;